createdAt,value
2018-07-25T00:00:03.465Z,28.37
2018-07-25T00:01:12.627Z,28.36
2018-07-25T00:02:22.725Z,28.39
2018-07-25T00:03:32.407Z,28.41
2018-07-25T00:04:41.307Z,28.37
2018-07-25T00:05:50.724Z,28.36
2018-07-25T00:06:59.871Z,28.36
2018-07-25T00:08:09.304Z,28.41
2018-07-25T00:09:18.975Z,28.3
2018-07-25T00:10:28.380Z,28.31
2018-07-25T00:11:37.278Z,28.31
2018-07-25T00:12:47.212Z,28.33
2018-07-25T00:13:57.149Z,28.29
2018-07-25T00:15:06.818Z,28.31
2018-07-25T00:16:16.241Z,28.31
2018-07-25T00:17:25.147Z,28.31
2018-07-25T00:18:34.548Z,28.27
2018-07-25T00:19:44.207Z,28.31
2018-07-25T00:20:53.367Z,28.31
2018-07-25T00:22:03.040Z,28.31
2018-07-25T00:23:12.187Z,28.33
2018-07-25T00:24:21.614Z,28.25
2018-07-25T00:25:30.760Z,28.3
2018-07-25T00:26:39.646Z,28.3
2018-07-25T00:27:48.537Z,28.24
2018-07-25T00:28:57.942Z,28.31
2018-07-25T00:30:07.345Z,28.25
2018-07-25T00:31:16.749Z,28.27
2018-07-25T00:32:26.160Z,28.3
2018-07-25T00:33:35.553Z,28.3
2018-07-25T00:34:45.230Z,28.27
2018-07-25T00:35:54.447Z,28.27
2018-07-25T00:37:03.859Z,28.25
2018-07-25T00:38:13.260Z,28.29
2018-07-25T00:39:22.414Z,28.33
2018-07-25T00:40:31.562Z,28.21
2018-07-25T00:41:40.731Z,28.3
2018-07-25T00:42:49.897Z,28.29
2018-07-25T00:43:59.307Z,28.22
2018-07-25T00:45:08.729Z,28.24
2018-07-25T00:46:17.625Z,28.25
2018-07-25T00:47:27.304Z,28.33
2018-07-25T00:48:36.704Z,28.33
2018-07-25T00:49:46.366Z,28.33
2018-07-25T00:50:55.511Z,28.29
2018-07-25T00:52:05.197Z,28.25
2018-07-25T00:53:14.610Z,28.22
2018-07-25T00:54:23.520Z,28.25
2018-07-25T00:55:32.458Z,28.25
2018-07-25T00:56:41.620Z,28.31
2018-07-25T00:57:50.511Z,28.3
2018-07-25T00:58:59.932Z,28.27
2018-07-25T01:00:09.080Z,28.24
2018-07-25T01:01:17.970Z,28.24
2018-07-25T01:02:27.125Z,28.24
2018-07-25T01:03:36.284Z,28.22
2018-07-25T01:04:45.454Z,28.31
2018-07-25T01:05:54.382Z,28.22
2018-07-25T01:07:03.536Z,28.27
2018-07-25T01:08:12.693Z,28.22
2018-07-25T01:09:22.613Z,28.25
2018-07-25T01:10:31.761Z,28.27
2018-07-25T01:11:41.175Z,28.27
2018-07-25T01:12:50.328Z,28.27
2018-07-25T01:13:59.530Z,28.29
2018-07-25T01:15:08.692Z,28.22
2018-07-25T01:16:17.589Z,28.19
2018-07-25T01:17:26.797Z,28.25
2018-07-25T01:18:36.211Z,28.24
2018-07-25T01:19:45.095Z,28.22
2018-07-25T01:20:53.998Z,28.22
2018-07-25T01:22:03.434Z,28.25
2018-07-25T01:23:12.592Z,28.25
2018-07-25T01:24:21.789Z,28.21
2018-07-25T01:25:30.938Z,28.15
2018-07-25T01:26:39.833Z,28.19
2018-07-25T01:27:49.005Z,28.22
2018-07-25T01:28:58.668Z,28.15
2018-07-25T01:30:08.354Z,28.19
2018-07-25T01:31:17.770Z,28.17
2018-07-25T01:32:27.217Z,28.19
2018-07-25T01:33:36.643Z,28.17
2018-07-25T01:34:45.862Z,28.12
2018-07-25T01:35:55.544Z,28.11
2018-07-25T01:37:05.209Z,28.12
2018-07-25T01:38:15.134Z,28.07
2018-07-25T01:39:23.774Z,28.17
2018-07-25T01:40:32.937Z,28.07
2018-07-25T01:41:42.363Z,28.18
2018-07-25T01:42:51.761Z,28.15
2018-07-25T01:44:00.397Z,28.14
2018-07-25T01:45:09.796Z,28.06
2018-07-25T01:46:19.227Z,28.12
2018-07-25T01:47:28.649Z,28.09
2018-07-25T01:48:37.809Z,28.06
2018-07-25T01:49:46.710Z,28.18
2018-07-25T01:50:56.127Z,28.14
2018-07-25T01:52:05.576Z,28.07
2018-07-25T01:53:15.233Z,28.11
2018-07-25T01:54:24.380Z,28.06
2018-07-25T01:55:33.304Z,28.07
2018-07-25T01:56:42.203Z,28.06
2018-07-25T01:57:51.353Z,28.09
2018-07-25T01:59:01.015Z,28.09
2018-07-25T02:00:10.432Z,28.12
2018-07-25T02:01:19.345Z,28.11
2018-07-25T02:02:28.660Z,28.11
2018-07-25T02:03:37.294Z,28.07
2018-07-25T02:04:47.227Z,28.09
2018-07-25T02:05:56.626Z,28.09
2018-07-25T02:07:06.039Z,28.14
2018-07-25T02:08:15.317Z,28.09
2018-07-25T02:09:24.961Z,28.15
2018-07-25T02:10:34.365Z,28.04
2018-07-25T02:11:43.789Z,28.12
2018-07-25T02:12:53.732Z,28.12
2018-07-25T02:14:02.885Z,28.07
2018-07-25T02:15:12.316Z,28.15
2018-07-25T02:16:21.502Z,28.06
2018-07-25T02:17:30.915Z,28.17
2018-07-25T02:18:39.819Z,28.14
2018-07-25T02:19:49.254Z,28.14
2018-07-25T02:20:58.457Z,28.14
2018-07-25T02:22:07.869Z,28.11
2018-07-25T02:23:17.272Z,28.11
2018-07-25T02:24:26.954Z,28.12
2018-07-25T02:25:36.132Z,28.12
2018-07-25T02:26:45.019Z,28.17
2018-07-25T02:27:54.701Z,28.11
2018-07-25T02:29:04.110Z,28.03
2018-07-25T02:30:13.278Z,28.06
2018-07-25T02:31:22.709Z,28.12
2018-07-25T02:32:32.397Z,28.09
2018-07-25T02:33:42.341Z,28.04
2018-07-25T02:34:51.761Z,28.09
2018-07-25T02:36:01.216Z,28.03
2018-07-25T02:37:10.679Z,28.15
2018-07-25T02:38:19.837Z,28.03
2018-07-25T02:39:29.521Z,28.12
2018-07-25T02:40:39.187Z,28.03
2018-07-25T02:41:48.599Z,28.11
2018-07-25T02:42:58.025Z,28.06
2018-07-25T02:44:07.462Z,28.09
2018-07-25T02:45:17.386Z,28.11
2018-07-25T02:46:26.563Z,28.03
2018-07-25T02:47:35.707Z,28.12
2018-07-25T02:48:45.189Z,28.09
2018-07-25T02:49:54.345Z,28.12
2018-07-25T02:51:04.032Z,28.09
2018-07-25T02:52:13.973Z,28.15
2018-07-25T02:53:23.400Z,28.11
2018-07-25T02:54:33.064Z,28.12
2018-07-25T02:55:42.480Z,28.18
2018-07-25T02:56:52.599Z,28.11
2018-07-25T02:58:02.496Z,28.11
2018-07-25T02:59:11.914Z,28.17
2018-07-25T03:00:21.616Z,28.19
2018-07-25T03:01:30.513Z,28.06
2018-07-25T03:02:40.180Z,28.06
2018-07-25T03:03:49.618Z,28.14
2018-07-25T03:04:59.561Z,28.09
2018-07-25T03:06:08.719Z,28
2018-07-25T03:07:18.398Z,28.17
2018-07-25T03:08:28.102Z,28.09
2018-07-25T03:09:37.515Z,28.04
2018-07-25T03:10:46.677Z,28.06
2018-07-25T03:11:55.390Z,28.11
2018-07-25T03:13:05.332Z,28.06
2018-07-25T03:14:14.754Z,28.06
2018-07-25T03:15:23.904Z,28.12
2018-07-25T03:16:33.363Z,28.02
2018-07-25T03:17:43.472Z,28.06
2018-07-25T03:18:52.923Z,28.06
2018-07-25T03:20:02.854Z,28.02
2018-07-25T03:21:12.264Z,28.11
2018-07-25T03:22:22.181Z,28.06
2018-07-25T03:23:31.876Z,28.17
2018-07-25T03:24:41.039Z,28.02
2018-07-25T03:25:50.452Z,28.09
2018-07-25T03:26:59.351Z,28.14
2018-07-25T03:28:09.018Z,27.97
2018-07-25T03:29:18.431Z,28.04
2018-07-25T03:30:28.371Z,28.06
2018-07-25T03:31:38.014Z,28
2018-07-25T03:32:47.621Z,28.09
2018-07-25T03:33:56.512Z,27.99
2018-07-25T03:35:06.226Z,28.04
2018-07-25T03:36:15.904Z,28.07
2018-07-25T03:37:25.374Z,28.02
2018-07-25T03:38:34.838Z,28.03
2018-07-25T03:39:43.979Z,28.12
2018-07-25T03:40:52.888Z,27.96
2018-07-25T03:42:02.313Z,28.03
2018-07-25T03:43:11.747Z,28.06
2018-07-25T03:44:20.657Z,27.99
2018-07-25T03:45:30.062Z,28.03
2018-07-25T03:46:39.229Z,28.04
2018-07-25T03:47:48.638Z,28.06
2018-07-25T03:48:58.084Z,28.04
2018-07-25T03:50:07.233Z,28.06
2018-07-25T03:51:16.382Z,27.97
2018-07-25T03:52:25.785Z,28.11
2018-07-25T03:53:34.924Z,28.04
2018-07-25T03:54:44.337Z,27.99
2018-07-25T03:55:53.773Z,28.07
2018-07-25T03:57:03.205Z,27.99
2018-07-25T03:58:12.611Z,27.99
2018-07-25T03:59:21.785Z,28.04
2018-07-25T04:00:30.960Z,28.02
2018-07-25T04:01:40.134Z,28.02
2018-07-25T04:02:49.544Z,28.04
2018-07-25T04:03:59.003Z,27.96
2018-07-25T04:05:08.157Z,28.03
2018-07-25T04:06:17.327Z,28.02
2018-07-25T04:07:26.467Z,28.03
2018-07-25T04:08:36.132Z,27.97
2018-07-25T04:09:45.790Z,27.97
2018-07-25T04:10:55.193Z,27.96
2018-07-25T04:12:04.602Z,27.99
2018-07-25T04:13:13.746Z,27.96
2018-07-25T04:14:23.164Z,27.99
2018-07-25T04:15:32.575Z,28.02
2018-07-25T04:16:41.724Z,27.99
2018-07-25T04:17:50.607Z,28
2018-07-25T04:19:00.032Z,27.99
2018-07-25T04:20:08.936Z,28
2018-07-25T04:21:18.604Z,27.97
2018-07-25T04:22:28.004Z,27.99
2018-07-25T04:23:37.414Z,27.96
2018-07-25T04:24:46.967Z,28.02
2018-07-25T04:25:56.985Z,27.99
2018-07-25T04:27:06.161Z,28.03
2018-07-25T04:28:15.816Z,27.96
2018-07-25T04:29:25.224Z,28
2018-07-25T04:30:34.387Z,28
2018-07-25T04:31:43.538Z,28.02
2018-07-25T04:32:52.936Z,27.99
2018-07-25T04:34:02.594Z,27.92
2018-07-25T04:35:12.256Z,28
2018-07-25T04:36:21.427Z,27.99
2018-07-25T04:37:30.579Z,28.02
2018-07-25T04:38:39.742Z,27.96
2018-07-25T04:39:48.897Z,27.99
2018-07-25T04:40:58.313Z,27.94
2018-07-25T04:42:07.472Z,27.97
2018-07-25T04:43:17.160Z,28
2018-07-25T04:44:26.564Z,27.93
2018-07-25T04:45:35.466Z,27.97
2018-07-25T04:46:45.547Z,27.92
2018-07-25T04:47:54.815Z,28
2018-07-25T04:49:03.705Z,27.88
2018-07-25T04:50:13.109Z,27.9
2018-07-25T04:51:22.517Z,27.94
2018-07-25T04:52:31.669Z,27.92
2018-07-25T04:53:40.824Z,27.87
2018-07-25T04:54:49.977Z,27.96
2018-07-25T04:55:59.655Z,27.93
2018-07-25T04:57:09.151Z,28.02
2018-07-25T04:58:18.563Z,27.9
2018-07-25T04:59:27.456Z,27.94
2018-07-25T05:00:36.089Z,27.9
2018-07-25T05:01:45.234Z,27.92
2018-07-25T05:02:54.386Z,27.85
2018-07-25T05:04:04.299Z,27.92
2018-07-25T05:05:13.450Z,27.85
2018-07-25T05:06:22.598Z,27.94
2018-07-25T05:07:32.275Z,27.92
2018-07-25T05:08:41.416Z,27.92
2018-07-25T05:09:50.569Z,27.97
2018-07-25T05:10:59.728Z,27.96
2018-07-25T05:12:09.134Z,28
2018-07-25T05:13:18.793Z,27.97
2018-07-25T05:14:27.940Z,27.99
2018-07-25T05:15:37.855Z,27.94
2018-07-25T05:16:47.523Z,27.96
2018-07-25T05:17:56.861Z,28.04
2018-07-25T05:19:05.788Z,27.97
2018-07-25T05:20:14.711Z,28
2018-07-25T05:21:24.626Z,28
2018-07-25T05:22:33.778Z,28.02
2018-07-25T05:23:43.181Z,28.06
2018-07-25T05:24:52.580Z,28.02
2018-07-25T05:26:01.221Z,28.04
2018-07-25T05:27:10.382Z,28.02
2018-07-25T05:28:19.800Z,28.04
2018-07-25T05:29:29.220Z,28.11
2018-07-25T05:30:38.677Z,28
2018-07-25T05:31:47.834Z,28.07
2018-07-25T05:32:57.000Z,28.06
2018-07-25T05:34:06.403Z,28.07
2018-07-25T05:35:15.299Z,28.12
2018-07-25T05:36:24.970Z,28.12
2018-07-25T05:37:34.642Z,28.11
2018-07-25T05:38:44.061Z,28.14
2018-07-25T05:39:53.278Z,28.09
2018-07-25T05:41:02.437Z,28.02
2018-07-25T05:42:11.842Z,28.17
2018-07-25T05:43:20.741Z,28.12
2018-07-25T05:44:30.420Z,28.12
2018-07-25T05:45:39.318Z,28.15
2018-07-25T05:46:48.210Z,28.12
2018-07-25T05:47:57.620Z,28.11
2018-07-25T05:49:06.765Z,28.18
2018-07-25T05:50:15.911Z,28.14
2018-07-25T05:51:25.062Z,28.19
2018-07-25T05:52:34.472Z,28.14
2018-07-25T05:53:44.397Z,28.17
2018-07-25T05:54:53.545Z,28.19
2018-07-25T05:56:02.765Z,28.22
2018-07-25T05:57:12.184Z,28.22
2018-07-25T05:58:21.856Z,28.19
2018-07-25T05:59:30.747Z,28.19
2018-07-25T06:00:40.145Z,28.18
2018-07-25T06:01:49.804Z,28.19
2018-07-25T06:03:00.093Z,28.19
2018-07-25T06:04:09.857Z,28.21
2018-07-25T06:05:19.605Z,28.18
2018-07-25T06:06:29.019Z,28.25
2018-07-25T06:07:38.197Z,28.21
2018-07-25T06:08:47.543Z,28.22
2018-07-25T06:09:57.216Z,28.25
2018-07-25T06:11:06.652Z,28.27
2018-07-25T06:12:16.318Z,28.27
2018-07-25T06:13:25.461Z,28.22
2018-07-25T06:14:34.096Z,28.27
2018-07-25T06:15:43.507Z,28.24
2018-07-25T06:16:52.645Z,28.31
2018-07-25T06:18:02.308Z,28.21
2018-07-25T06:19:11.193Z,28.29
2018-07-25T06:20:20.162Z,28.3
2018-07-25T06:21:29.589Z,28.25
2018-07-25T06:24:20.270Z,28.3
2018-07-25T06:25:29.413Z,28.29
2018-07-25T06:26:38.325Z,28.33
2018-07-25T06:27:47.743Z,28.24
2018-07-25T06:28:56.661Z,28.33
2018-07-25T06:30:06.096Z,28.27
2018-07-25T06:31:15.593Z,28.27
2018-07-25T06:32:25.126Z,28.29
2018-07-25T06:33:34.807Z,28.31
2018-07-25T06:34:44.636Z,28.27
2018-07-25T06:35:54.419Z,28.27
2018-07-25T06:37:04.133Z,28.3
2018-07-25T06:38:13.571Z,28.29
2018-07-25T06:39:22.736Z,28.27
2018-07-25T06:40:32.490Z,28.3
2018-07-25T06:41:41.662Z,28.29
2018-07-25T06:42:50.829Z,28.31
2018-07-25T06:44:00.304Z,28.25
2018-07-25T06:45:09.217Z,28.3
2018-07-25T06:46:18.116Z,28.3
2018-07-25T06:47:27.271Z,28.3
2018-07-25T06:48:36.685Z,28.3
2018-07-25T06:49:45.859Z,28.29
2018-07-25T06:50:55.440Z,28.34
2018-07-25T06:52:05.120Z,28.31
2018-07-25T06:53:14.089Z,28.24
2018-07-25T06:54:23.508Z,28.3
2018-07-25T06:55:32.672Z,28.31
2018-07-25T06:56:42.334Z,28.27
2018-07-25T06:57:51.234Z,28.33
2018-07-25T06:59:00.393Z,28.29
2018-07-25T07:00:09.571Z,28.33
2018-07-25T07:01:18.750Z,28.37
2018-07-25T07:02:28.432Z,28.34
2018-07-25T07:03:38.346Z,28.34
2018-07-25T07:04:47.246Z,28.33
2018-07-25T07:05:56.921Z,28.33
2018-07-25T07:07:06.333Z,28.39
2018-07-25T07:08:15.750Z,28.31
2018-07-25T07:09:25.420Z,28.36
2018-07-25T07:10:34.840Z,28.31
2018-07-25T07:11:43.994Z,28.36
2018-07-25T07:12:53.828Z,28.36
2018-07-25T07:14:02.994Z,28.34
2018-07-25T07:15:12.192Z,28.36
2018-07-25T07:16:21.127Z,28.31
2018-07-25T07:17:30.452Z,28.34
2018-07-25T07:18:40.355Z,28.37
2018-07-25T07:19:50.068Z,28.31
2018-07-25T07:20:59.529Z,28.29
2018-07-25T07:22:08.942Z,28.36
2018-07-25T07:23:17.893Z,28.36
2018-07-25T07:24:27.085Z,28.34
2018-07-25T07:25:36.247Z,28.39
2018-07-25T07:26:46.212Z,28.36
2018-07-25T07:27:55.378Z,28.36
2018-07-25T07:29:05.047Z,28.34
2018-07-25T07:30:14.463Z,28.4
2018-07-25T07:31:24.481Z,28.4
2018-07-25T07:32:33.777Z,28.36
2018-07-25T07:33:43.268Z,28.43
2018-07-25T07:34:52.714Z,28.34
2018-07-25T07:36:01.622Z,28.37
2018-07-25T07:37:11.089Z,28.37
2018-07-25T07:38:20.076Z,28.41
2018-07-25T07:39:29.007Z,28.33
2018-07-25T07:40:38.733Z,28.37
2018-07-25T07:41:48.226Z,28.37
2018-07-25T07:42:57.940Z,28.34
2018-07-25T07:44:07.165Z,28.36
2018-07-25T07:45:17.419Z,28.31
2018-07-25T07:46:26.607Z,28.37
2018-07-25T07:47:36.478Z,28.36
2018-07-25T07:48:46.365Z,28.37
2018-07-25T07:49:56.075Z,28.39
2018-07-25T07:51:05.748Z,28.39
2018-07-25T07:52:14.925Z,28.41
2018-07-25T07:53:24.100Z,28.41
2018-07-25T07:54:33.274Z,28.4
2018-07-25T07:55:42.206Z,28.39
2018-07-25T07:56:51.380Z,28.41
2018-07-25T07:58:00.550Z,28.33
2018-07-25T07:59:09.471Z,28.36
2018-07-25T08:00:18.935Z,28.36
2018-07-25T08:01:28.610Z,28.36
2018-07-25T08:02:38.030Z,28.37
2018-07-25T08:03:47.453Z,28.3
2018-07-25T08:04:57.050Z,28.33
2018-07-25T08:06:06.859Z,28.33
2018-07-25T08:07:16.032Z,28.41
2018-07-25T08:08:25.483Z,28.37
2018-07-25T08:09:34.645Z,28.4
2018-07-25T08:10:44.628Z,28.39
2018-07-25T08:11:53.812Z,28.33
2018-07-25T08:13:03.225Z,28.33
2018-07-25T08:14:12.902Z,28.37
2018-07-25T08:15:22.595Z,28.37
2018-07-25T08:16:32.031Z,28.39
2018-07-25T08:17:41.948Z,28.33
2018-07-25T08:18:51.866Z,28.44
2018-07-25T08:20:01.700Z,28.37
2018-07-25T08:21:11.116Z,28.31
2018-07-25T08:22:21.007Z,28.33
2018-07-25T08:23:30.161Z,28.39
2018-07-25T08:24:39.564Z,28.33
2018-07-25T08:25:49.093Z,28.36
2018-07-25T08:26:58.979Z,28.37
2018-07-25T08:28:08.159Z,28.36
2018-07-25T08:29:17.836Z,28.44
2018-07-25T08:30:27.015Z,28.33
2018-07-25T08:31:36.434Z,28.36
2018-07-25T08:32:46.110Z,28.37
2018-07-25T08:33:55.272Z,28.36
2018-07-25T08:35:04.952Z,28.39
2018-07-25T08:36:14.353Z,28.34
2018-07-25T08:37:23.778Z,28.39
2018-07-25T08:38:33.193Z,28.4
2018-07-25T08:39:42.611Z,28.4
2018-07-25T08:40:52.292Z,28.36
2018-07-25T08:42:01.697Z,28.39
2018-07-25T08:43:11.123Z,28.46
2018-07-25T08:44:20.018Z,28.33
2018-07-25T08:45:29.187Z,28.37
2018-07-25T08:46:38.595Z,28.37
2018-07-25T08:47:48.405Z,28.4
2018-07-25T08:48:57.813Z,28.46
2018-07-25T08:50:07.500Z,28.44
2018-07-25T08:51:16.924Z,28.43
2018-07-25T08:52:26.352Z,28.41
2018-07-25T08:53:36.029Z,28.4
2018-07-25T08:54:45.451Z,28.49
2018-07-25T08:55:54.609Z,28.41
2018-07-25T08:57:04.035Z,28.41
2018-07-25T08:58:12.727Z,28.36
2018-07-25T08:59:22.401Z,28.43
2018-07-25T09:00:31.899Z,28.48
2018-07-25T09:01:41.574Z,28.4
2018-07-25T09:02:50.987Z,28.39
2018-07-25T09:04:00.922Z,28.39
2018-07-25T09:05:10.336Z,28.43
2018-07-25T09:06:20.083Z,28.41
2018-07-25T09:07:29.329Z,28.44
2018-07-25T09:08:39.457Z,28.44
2018-07-25T09:09:49.043Z,28.44
2018-07-25T09:10:58.974Z,28.37
2018-07-25T09:12:07.878Z,28.48
2018-07-25T09:13:17.294Z,28.37
2018-07-25T09:14:26.466Z,28.41
2018-07-25T09:15:35.882Z,28.44
2018-07-25T09:16:45.324Z,28.39
2018-07-25T09:17:55.201Z,28.36
2018-07-25T09:19:05.276Z,28.49
2018-07-25T09:20:15.095Z,28.41
2018-07-25T09:21:23.988Z,28.44
2018-07-25T09:22:33.165Z,28.44
2018-07-25T09:23:42.841Z,28.43
2018-07-25T09:24:51.994Z,28.44
2018-07-25T09:26:01.148Z,28.41
2018-07-25T09:27:11.140Z,28.49
2018-07-25T09:28:20.306Z,28.39
2018-07-25T09:29:30.377Z,28.51
2018-07-25T09:30:40.178Z,28.51
2018-07-25T09:31:49.915Z,28.44
2018-07-25T09:32:58.837Z,28.39
2018-07-25T09:34:08.312Z,28.46
2018-07-25T09:35:18.514Z,28.49
2018-07-25T09:36:27.683Z,28.36
2018-07-25T09:37:36.900Z,28.43
2018-07-25T09:38:46.373Z,28.48
2018-07-25T09:39:56.430Z,28.44
2018-07-25T09:41:06.753Z,28.51
2018-07-25T09:42:16.637Z,28.51
2018-07-25T09:43:26.107Z,28.48
2018-07-25T09:44:35.580Z,28.46
2018-07-25T09:45:44.776Z,28.49
2018-07-25T09:46:54.732Z,28.52
2018-07-25T09:48:04.525Z,28.48
2018-07-25T09:49:14.319Z,28.49
2018-07-25T09:50:24.156Z,28.48
2018-07-25T09:51:32.800Z,28.49
2018-07-25T09:52:42.527Z,28.4
2018-07-25T09:53:52.089Z,28.54
2018-07-25T09:55:01.570Z,28.41
2018-07-25T09:56:11.135Z,28.41
2018-07-25T09:57:21.175Z,28.4
2018-07-25T09:58:30.661Z,28.48
2018-07-25T09:59:39.565Z,28.43
2018-07-25T10:00:49.094Z,28.48
2018-07-25T10:01:58.636Z,28.49
2018-07-25T10:03:07.822Z,28.54
2018-07-25T10:04:17.571Z,28.46
2018-07-25T10:05:26.788Z,28.41
2018-07-25T10:06:36.897Z,28.43
2018-07-25T10:07:46.913Z,28.52
2018-07-25T10:08:56.706Z,28.52
2018-07-25T10:10:06.231Z,28.44
2018-07-25T10:11:16.063Z,28.48
2018-07-25T10:12:25.828Z,28.51
2018-07-25T10:13:35.286Z,28.46
2018-07-25T10:14:44.726Z,28.43
2018-07-25T10:15:54.442Z,28.49
2018-07-25T10:17:04.198Z,28.43
2018-07-25T10:18:13.370Z,28.52
2018-07-25T10:19:22.004Z,28.41
2018-07-25T10:20:31.731Z,28.49
2018-07-25T10:21:41.284Z,28.44
2018-07-25T10:22:50.757Z,28.55
2018-07-25T10:23:59.652Z,28.46
2018-07-25T10:25:08.564Z,28.46
2018-07-25T10:26:18.039Z,28.48
2018-07-25T10:27:28.134Z,28.54
2018-07-25T10:28:38.148Z,28.49
2018-07-25T10:29:47.319Z,28.48
2018-07-25T10:30:56.255Z,28.39
2018-07-25T10:32:05.747Z,28.52
2018-07-25T10:33:14.970Z,28.44
2018-07-25T10:34:24.230Z,28.51
2018-07-25T10:35:33.724Z,28.41
2018-07-25T10:36:43.519Z,28.54
2018-07-25T10:37:52.976Z,28.46
2018-07-25T10:39:02.947Z,28.48
2018-07-25T10:40:12.553Z,28.46
2018-07-25T10:41:22.259Z,28.41
2018-07-25T10:42:32.527Z,28.55
2018-07-25T10:43:42.426Z,28.46
2018-07-25T10:44:52.133Z,28.46
2018-07-25T10:46:02.256Z,28.4
2018-07-25T10:47:11.702Z,28.56
2018-07-25T10:48:21.164Z,28.46
2018-07-25T10:49:30.344Z,28.52
2018-07-25T10:50:39.844Z,28.48
2018-07-25T10:51:49.029Z,28.52
2018-07-25T10:52:58.726Z,28.49
2018-07-25T10:54:07.896Z,28.51
2018-07-25T10:55:17.343Z,28.52
2018-07-25T10:56:26.521Z,28.52
2018-07-25T10:57:36.036Z,28.51
2018-07-25T10:58:45.781Z,28.51
2018-07-25T10:59:55.495Z,28.48
2018-07-25T11:01:05.255Z,28.55
2018-07-25T11:02:14.483Z,28.54
2018-07-25T11:03:23.372Z,28.51
2018-07-25T11:04:32.298Z,28.58
2018-07-25T11:05:41.533Z,28.49
2018-07-25T11:06:50.730Z,28.52
2018-07-25T11:07:59.917Z,28.55
2018-07-25T11:09:09.629Z,28.46
2018-07-25T11:10:19.079Z,28.54
2018-07-25T11:11:28.249Z,28.48
2018-07-25T11:12:37.439Z,28.48
2018-07-25T11:13:46.886Z,28.41
2018-07-25T11:14:56.322Z,28.48
2018-07-25T11:16:05.752Z,28.46
2018-07-25T11:17:15.466Z,28.56
2018-07-25T11:18:24.879Z,28.43
2018-07-25T11:19:34.602Z,28.59
2018-07-25T11:20:43.787Z,28.44
2018-07-25T11:21:53.489Z,28.51
2018-07-25T11:23:03.311Z,28.49
2018-07-25T11:24:12.957Z,28.48
2018-07-25T11:25:22.387Z,28.61
2018-07-25T11:26:31.817Z,28.52
2018-07-25T11:27:40.988Z,28.61
2018-07-25T11:28:50.161Z,28.61
2018-07-25T11:30:00.099Z,28.48
2018-07-25T11:31:09.767Z,28.58
2018-07-25T11:32:19.423Z,28.58
2018-07-25T11:33:29.214Z,28.51
2018-07-25T11:34:38.868Z,28.51
2018-07-25T11:35:48.275Z,28.59
2018-07-25T11:36:57.683Z,28.49
2018-07-25T11:38:07.501Z,28.48
2018-07-25T11:39:17.359Z,28.56
2018-07-25T11:40:27.040Z,28.48
2018-07-25T11:41:36.439Z,28.56
2018-07-25T11:42:46.116Z,28.49
2018-07-25T11:43:55.517Z,28.59
2018-07-25T11:45:04.677Z,28.59
2018-07-25T11:46:14.361Z,28.56
2018-07-25T11:47:23.784Z,28.58
2018-07-25T11:48:33.210Z,28.58
2018-07-25T11:49:42.357Z,28.59
2018-07-25T11:50:51.779Z,28.55
2018-07-25T11:52:00.934Z,28.59
2018-07-25T11:53:10.080Z,28.55
2018-07-25T11:54:19.251Z,28.56
2018-07-25T11:55:29.506Z,28.59
2018-07-25T11:56:38.827Z,28.59
2018-07-25T11:57:47.989Z,28.64
2018-07-25T11:58:57.667Z,28.62
2018-07-25T12:00:06.827Z,28.56
2018-07-25T12:01:16.296Z,28.58
2018-07-25T12:02:26.126Z,28.58
2018-07-25T12:03:35.290Z,28.55
2018-07-25T12:04:44.982Z,28.64
2018-07-25T12:05:54.662Z,28.55
2018-07-25T12:07:04.270Z,28.56
2018-07-25T12:08:14.455Z,28.61
2018-07-25T12:09:25.338Z,28.56
2018-07-25T12:10:36.674Z,28.61
2018-07-25T12:11:45.583Z,28.58
2018-07-25T12:12:56.268Z,28.58
2018-07-25T12:14:07.743Z,28.56
2018-07-25T12:15:18.072Z,28.59
2018-07-25T12:16:28.029Z,28.59
2018-07-25T12:17:37.721Z,28.59
2018-07-25T12:18:46.907Z,28.56
2018-07-25T12:19:55.534Z,28.51
2018-07-25T12:21:05.638Z,28.52
2018-07-25T12:22:16.053Z,28.64
2018-07-25T12:23:25.585Z,28.55
2018-07-25T12:24:35.178Z,28.55
2018-07-25T12:25:44.795Z,28.59
2018-07-25T12:26:53.728Z,28.59
2018-07-25T12:28:03.342Z,28.62
2018-07-25T12:29:13.299Z,28.56
2018-07-25T12:30:22.825Z,28.52
2018-07-25T12:31:32.987Z,28.55
2018-07-25T12:32:42.315Z,28.54
2018-07-25T12:33:52.238Z,28.56
2018-07-25T12:35:01.729Z,28.61
2018-07-25T12:36:10.829Z,28.58
2018-07-25T12:37:20.268Z,28.59
2018-07-25T12:38:29.712Z,28.62
2018-07-25T12:39:39.758Z,28.58
2018-07-25T12:40:49.758Z,28.64
2018-07-25T12:41:59.836Z,28.76
2018-07-25T12:43:09.396Z,28.64
2018-07-25T12:44:18.592Z,28.62
2018-07-25T12:45:27.235Z,28.66
2018-07-25T12:46:37.377Z,28.64
2018-07-25T12:47:46.856Z,28.66
2018-07-25T12:48:56.469Z,28.59
2018-07-25T12:50:06.328Z,28.71
2018-07-25T12:51:15.539Z,28.66
2018-07-25T12:52:25.675Z,28.66
2018-07-25T12:53:35.797Z,28.66
2018-07-25T12:54:45.070Z,28.64
2018-07-25T12:55:54.245Z,28.61
2018-07-25T12:57:04.027Z,28.68
2018-07-25T12:58:12.953Z,28.66
2018-07-25T12:59:22.696Z,28.7
2018-07-25T13:00:32.261Z,28.7
2018-07-25T13:01:41.179Z,28.7
2018-07-25T13:02:50.105Z,28.68
2018-07-25T13:03:59.765Z,28.68
2018-07-25T13:05:09.488Z,28.67
2018-07-25T13:06:19.005Z,28.64
2018-07-25T13:07:27.934Z,28.73
2018-07-25T13:08:37.397Z,28.67
2018-07-25T13:09:47.323Z,28.68
2018-07-25T13:10:56.551Z,28.68
2018-07-25T13:12:06.000Z,28.68
2018-07-25T13:13:15.499Z,28.67
2018-07-25T13:14:25.225Z,28.68
2018-07-25T13:15:34.677Z,28.73
2018-07-25T13:16:44.126Z,28.76
2018-07-25T13:17:54.157Z,28.71
2018-07-25T13:19:03.333Z,28.76
2018-07-25T13:20:13.083Z,28.77
2018-07-25T13:21:22.305Z,28.78
2018-07-25T13:22:32.045Z,28.77
2018-07-25T13:23:41.856Z,28.71
2018-07-25T13:24:51.089Z,28.76
2018-07-25T13:26:00.537Z,28.81
2018-07-25T13:27:09.720Z,28.78
2018-07-25T13:28:18.674Z,28.78
2018-07-25T13:29:28.302Z,28.76
2018-07-25T13:30:38.096Z,28.81
2018-07-25T13:31:47.815Z,28.86
2018-07-25T13:32:57.547Z,28.81
2018-07-25T13:34:06.730Z,28.83
2018-07-25T13:35:16.495Z,28.81
2018-07-25T13:36:25.981Z,28.89
2018-07-25T13:37:35.482Z,28.9
2018-07-25T13:38:44.659Z,28.81
2018-07-25T13:39:54.115Z,28.86
2018-07-25T13:41:03.849Z,28.85
2018-07-25T13:42:13.555Z,28.89
2018-07-25T13:43:22.772Z,28.85
2018-07-25T13:44:31.407Z,28.89
2018-07-25T13:45:41.833Z,28.89
2018-07-25T13:46:51.960Z,28.95
2018-07-25T13:48:01.474Z,28.8
2018-07-25T13:49:10.959Z,28.88
2018-07-25T13:50:20.404Z,28.89
2018-07-25T13:51:30.131Z,28.81
2018-07-25T13:52:39.621Z,28.9
2018-07-25T13:53:49.368Z,28.93
2018-07-25T13:54:58.822Z,28.85
2018-07-25T13:56:08.265Z,28.93
2018-07-25T13:57:18.010Z,28.88
2018-07-25T13:58:28.056Z,28.92
2018-07-25T13:59:37.547Z,28.86
2018-07-25T14:00:47.778Z,28.93
2018-07-25T14:01:56.960Z,28.93
2018-07-25T14:03:06.452Z,28.93
2018-07-25T14:04:16.183Z,29.04
2018-07-25T14:05:25.791Z,29
2018-07-25T14:06:35.263Z,28.96
2018-07-25T14:07:44.194Z,29
2018-07-25T14:08:53.926Z,28.93
2018-07-25T14:10:03.404Z,28.96
2018-07-25T14:11:12.622Z,29
2018-07-25T14:12:22.357Z,29
2018-07-25T14:13:32.377Z,28.93
2018-07-25T14:14:41.849Z,28.95
2018-07-25T14:15:51.902Z,29.06
2018-07-25T14:17:01.093Z,28.98
2018-07-25T14:18:10.784Z,29
2018-07-25T14:19:20.755Z,29
2018-07-25T14:20:30.556Z,28.96
2018-07-25T14:21:40.331Z,29.04
2018-07-25T14:22:49.786Z,29
2018-07-25T14:23:59.511Z,29.02
2018-07-25T14:25:08.911Z,28.98
2018-07-25T14:26:18.406Z,28.98
2018-07-25T14:27:28.428Z,29.04
2018-07-25T14:28:38.054Z,28.98
2018-07-25T14:29:48.274Z,28.92
2018-07-25T14:30:58.018Z,28.9
2018-07-25T14:32:06.936Z,28.89
2018-07-25T14:33:15.897Z,29.02
2018-07-25T14:34:25.862Z,28.98
2018-07-25T14:35:35.861Z,28.92
2018-07-25T14:36:45.307Z,28.92
2018-07-25T14:37:54.223Z,28.96
2018-07-25T14:39:03.413Z,28.95
2018-07-25T14:40:13.102Z,29.02
2018-07-25T14:41:23.489Z,28.98
2018-07-25T14:42:32.960Z,28.9
2018-07-25T14:43:42.417Z,28.93
2018-07-25T14:44:52.134Z,29.05
2018-07-25T14:46:01.599Z,29
2018-07-25T14:47:11.193Z,28.98
2018-07-25T14:48:21.249Z,28.98
2018-07-25T14:49:30.752Z,28.95
2018-07-25T14:50:40.516Z,29.02
2018-07-25T14:51:49.418Z,28.96
2018-07-25T14:52:59.177Z,28.95
2018-07-25T14:54:08.652Z,28.95
2018-07-25T14:55:18.112Z,29.05
2018-07-25T14:56:27.580Z,29.04
2018-07-25T14:57:37.050Z,29.04
2018-07-25T14:58:45.991Z,28.98
2018-07-25T14:59:55.433Z,29.09